Time;durP1;ratioP1;P1;durP2;ratioP2;P2;SDS_P1;SDS_P2;PMS_P1;PMS_P2;Temp;Humidity;BMP_temperature;BMP_pressure;BME280_temperature;BME280_humidity;BME280_pressure;Samples;Min_cycle;Max_cycle;Signal;HPM_P1;HPM_P2
2022/10/24 00:01:27;;;;;;;;;1.00;1.00;;;;;;;;5098409;27;46310;-69
2022/10/24 00:03:52;;;;;;;;;1.00;1.00;;;;;;;;5097367;27;45418;-70
2022/10/24 00:06:18;;;;;;;;;2.00;2.00;;;;;;;;5099208;27;45413;-69
2022/10/24 00:08:44;;;;;;;;;1.00;1.00;;;;;;;;5099502;27;45532;-68
2022/10/24 00:11:11;;;;;;;;;0.00;0.00;;;;;;;;5098580;27;45358;-69
2022/10/24 00:13:37;;;;;;;;;1.00;1.00;;;;;;;;5099677;27;45268;-69
2022/10/24 00:16:02;;;;;;;;;2.00;2.00;;;;;;;;5099880;27;45214;-67
2022/10/24 00:18:27;;;;;;;;;1.50;1.50;;;;;;;;5100391;27;45386;-72
2022/10/24 00:20:52;;;;;;;;;1.00;1.00;;;;;;;;5098051;27;45359;-68
2022/10/24 00:23:17;;;;;;;;;0.50;0.50;;;;;;;;5098216;27;45263;-70
2022/10/24 00:25:42;;;;;;;;;1.00;1.00;;;;;;;;5098494;27;45335;-67
2022/10/24 00:28:08;;;;;;;;;1.00;1.00;;;;;;;;5098420;27;45684;-70
2022/10/24 00:30:33;;;;;;;;;2.00;1.50;;;;;;;;5098219;27;46249;-68
2022/10/24 00:32:58;;;;;;;;;2.00;2.00;;;;;;;;5098221;27;45420;-70
2022/10/24 00:35:23;;;;;;;;;1.00;1.00;;;;;;;;5098259;27;45444;-69
2022/10/24 00:37:49;;;;;;;;;0.50;0.50;;;;;;;;5098019;27;45351;-68
2022/10/24 00:40:16;;;;;;;;;2.00;2.00;;;;;;;;5097832;27;45557;-68
2022/10/24 00:42:41;;;;;;;;;0.25;0.25;;;;;;;;5098488;27;45424;-68
2022/10/24 00:45:25;;;;;;;;;3.00;1.00;;;;;;;;5097504;27;45369;-68
2022/10/24 00:47:50;;;;;;;;;1.00;1.00;;;;;;;;5098807;27;45261;-70
2022/10/24 00:50:15;;;;;;;;;1.00;0.25;;;;;;;;5097740;27;46124;-68
2022/10/24 00:52:43;;;;;;;;;2.00;2.00;;;;;;;;5097667;27;45243;-69
2022/10/24 00:55:09;;;;;;;;;1.00;1.00;;;;;;;;5097724;27;45394;-68
2022/10/24 00:57:49;;;;;;;;;1.75;1.75;;;;;;;;5097785;27;45506;-69
2022/10/24 01:00:26;;;;;;;;;2.25;2.25;;;;;;;;5097429;27;45495;-68
2022/10/24 01:02:51;;;;;;;;;0.33;0.33;;;;;;;;5097718;27;45343;-68
2022/10/24 01:05:18;;;;;;;;;0.25;0.25;;;;;;;;5098598;27;45236;-69
2022/10/24 01:08:09;;;;;;;;;0.75;0.75;;;;;;;;5097758;27;45456;-69
2022/10/24 01:10:34;;;;;;;;;2.25;2.25;;;;;;;;5073385;27;45436;-68
2022/10/24 01:13:09;;;;;;;;;1.00;1.00;;;;;;;;5097688;27;45336;-69
2022/10/24 01:15:49;;;;;;;;;4.00;3.00;;;;;;;;5096719;27;45308;-67
2022/10/24 01:18:23;;;;;;;;;1.00;1.00;;;;;;;;5097584;27;45236;-68
2022/10/24 01:20:48;;;;;;;;;1.00;1.00;;;;;;;;5079405;27;46193;-69
2022/10/24 01:23:40;;;;;;;;;1.00;1.00;;;;;;;;5097312;27;45412;-69
2022/10/24 01:26:08;;;;;;;;;2.00;2.00;;;;;;;;5095478;27;45448;-67
2022/10/24 01:28:49;;;;;;;;;0.00;0.00;;;;;;;;5098826;27;45605;-69
2022/10/24 01:31:24;;;;;;;;;1.00;1.00;;;;;;;;5097365;27;45353;-68
2022/10/24 01:33:54;;;;;;;;;3.75;2.25;;;;;;;;5096725;27;45406;-68
2022/10/24 01:36:33;;;;;;;;;1.25;1.25;;;;;;;;5096884;27;45293;-69
2022/10/24 01:39:01;;;;;;;;;0.33;0.33;;;;;;;;5097011;27;45517;-69
2022/10/24 01:41:27;;;;;;;;;1.00;1.00;;;;;;;;5096526;27;46405;-71
2022/10/24 01:44:04;;;;;;;;;1.00;1.00;;;;;;;;5096557;27;45352;-69
2022/10/24 01:46:32;;;;;;;;;1.00;1.00;;;;;;;;5095323;27;45276;-67
2022/10/24 01:49:00;;;;;;;;;1.50;1.00;;;;;;;;5097083;27;45602;-69
2022/10/24 01:51:28;;;;;;;;;2.00;1.00;;;;;;;;5096745;27;45542;-68
2022/10/24 01:53:54;;;;;;;;;0.75;0.75;;;;;;;;5098316;27;45393;-68
2022/10/24 01:56:19;;;;;;;;;1.50;1.50;;;;;;;;5096635;27;45239;-68
2022/10/24 01:58:45;;;;;;;;;0.50;0.50;;;;;;;;5096689;27;45568;-68
2022/10/24 02:01:15;;;;;;;;;2.75;2.75;;;;;;;;5096220;27;46292;-69
2022/10/24 02:03:44;;;;;;;;;1.00;1.00;;;;;;;;5096059;27;45394;-70
2022/10/24 02:06:09;;;;;;;;;1.00;1.00;;;;;;;;5096249;27;45217;-68
2022/10/24 02:08:38;;;;;;;;;1.00;1.00;;;;;;;;5096706;27;45644;-68
2022/10/24 02:11:05;;;;;;;;;0.50;0.50;;;;;;;;5096382;27;45966;-68
2022/10/24 02:13:38;;;;;;;;;1.00;1.00;;;;;;;;5096472;27;45487;-68
2022/10/24 02:16:04;;;;;;;;;1.50;1.00;;;;;;;;5097291;27;45279;-68
2022/10/24 02:18:29;;;;;;;;;0.67;0.67;;;;;;;;5097409;27;45486;-69
2022/10/24 02:21:00;;;;;;;;;1.00;0.75;;;;;;;;5096361;27;47032;-69
2022/10/24 02:23:27;;;;;;;;;1.00;1.00;;;;;;;;5099753;27;45183;-67
2022/10/24 02:25:55;;;;;;;;;1.00;1.00;;;;;;;;5100169;27;45246;-70
2022/10/24 02:28:22;;;;;;;;;2.00;1.00;;;;;;;;5096461;27;45433;-70
2022/10/24 02:30:57;;;;;;;;;1.00;1.00;;;;;;;;5096213;27;45375;-70
2022/10/24 02:33:24;;;;;;;;;1.00;1.00;;;;;;;;5097993;27;45437;-69
2022/10/24 02:35:51;;;;;;;;;1.00;1.00;;;;;;;;5097634;27;45271;-71
2022/10/24 02:38:16;;;;;;;;;1.25;1.25;;;;;;;;5096700;27;44780;-70
2022/10/24 02:40:43;;;;;;;;;2.25;1.25;;;;;;;;5097167;27;46073;-70
2022/10/24 02:43:09;;;;;;;;;1.25;1.25;;;;;;;;5097522;27;45461;-70
2022/10/24 02:45:35;;;;;;;;;1.00;1.00;;;;;;;;5097622;27;45488;-69
2022/10/24 02:48:03;;;;;;;;;1.00;1.00;;;;;;;;5096413;27;45621;-69
2022/10/24 02:50:30;;;;;;;;;0.25;0.25;;;;;;;;5096932;27;45382;-69
2022/10/24 02:52:55;;;;;;;;;1.00;1.00;;;;;;;;5095721;27;45393;-68
2022/10/24 02:55:21;;;;;;;;;0.00;0.00;;;;;;;;5095911;27;45235;-68
2022/10/24 02:57:46;;;;;;;;;2.00;2.00;;;;;;;;5095914;27;45290;-69
2022/10/24 03:00:11;;;;;;;;;2.00;2.00;;;;;;;;5095340;27;45256;-69
2022/10/24 03:02:37;;;;;;;;;1.00;1.00;;;;;;;;5095888;27;45390;-70
2022/10/24 03:05:02;;;;;;;;;1.00;1.00;;;;;;;;5097183;27;45214;-68
2022/10/24 03:07:27;;;;;;;;;0.25;0.25;;;;;;;;5096640;27;45211;-69
2022/10/24 03:09:52;;;;;;;;;1.00;1.00;;;;;;;;5095709;27;45198;-68
2022/10/24 03:12:18;;;;;;;;;2.00;1.00;;;;;;;;5096723;27;45485;-69
2022/10/24 03:14:43;;;;;;;;;1.75;1.75;;;;;;;;5097228;27;45316;-70
2022/10/24 03:17:08;;;;;;;;;1.00;1.00;;;;;;;;5099660;27;45276;-69
2022/10/24 03:19:33;;;;;;;;;1.25;1.25;;;;;;;;5099331;27;45390;-70
2022/10/24 03:21:59;;;;;;;;;1.00;1.00;;;;;;;;5093775;27;45419;-70
2022/10/24 03:24:24;;;;;;;;;1.00;1.00;;;;;;;;5095474;27;45299;-68
2022/10/24 03:26:51;;;;;;;;;1.00;1.00;;;;;;;;5095516;27;45316;-68
2022/10/24 03:29:16;;;;;;;;;1.00;1.00;;;;;;;;5096550;27;45426;-69
2022/10/24 03:31:42;;;;;;;;;3.00;3.00;;;;;;;;5096028;27;45760;-69
2022/10/24 03:34:07;;;;;;;;;1.75;1.25;;;;;;;;5094188;27;45836;-68
2022/10/24 03:36:32;;;;;;;;;1.75;1.75;;;;;;;;5095544;27;45600;-69
2022/10/24 03:38:57;;;;;;;;;1.00;1.00;;;;;;;;5095782;27;45427;-68
2022/10/24 03:41:23;;;;;;;;;1.25;1.25;;;;;;;;5098699;27;45771;-67
2022/10/24 03:43:49;;;;;;;;;1.00;1.00;;;;;;;;5098467;27;45367;-68
2022/10/24 03:46:14;;;;;;;;;0.75;0.75;;;;;;;;5098535;27;45568;-71
2022/10/24 03:48:39;;;;;;;;;1.25;1.00;;;;;;;;5098499;27;45902;-70
2022/10/24 03:51:04;;;;;;;;;3.75;3.00;;;;;;;;5098575;27;45280;-69
2022/10/24 03:53:30;;;;;;;;;1.00;1.00;;;;;;;;5099419;27;45140;-68
2022/10/24 03:55:56;;;;;;;;;0.50;0.50;;;;;;;;5099813;27;45663;-70
2022/10/24 03:58:21;;;;;;;;;1.00;1.00;;;;;;;;5099891;27;46396;-68
2022/10/24 04:00:46;;;;;;;;;2.75;2.75;;;;;;;;5099165;27;45316;-67
2022/10/24 04:03:11;;;;;;;;;1.00;1.00;;;;;;;;5099322;27;45152;-70
2022/10/24 04:05:37;;;;;;;;;1.00;1.00;;;;;;;;5098683;27;45365;-67
2022/10/24 04:08:02;;;;;;;;;1.50;1.50;;;;;;;;5098527;27;46171;-68
2022/10/24 04:10:27;;;;;;;;;1.00;1.00;;;;;;;;5098368;27;45262;-67
2022/10/24 04:12:52;;;;;;;;;1.00;1.00;;;;;;;;5097045;27;45418;-68
2022/10/24 04:15:18;;;;;;;;;3.50;3.50;;;;;;;;5098503;27;45305;-69
2022/10/24 04:17:43;;;;;;;;;2.00;2.00;;;;;;;;5098993;27;46468;-69
2022/10/24 04:20:08;;;;;;;;;1.00;1.00;;;;;;;;5098955;27;45386;-68
2022/10/24 04:22:33;;;;;;;;;2.75;2.75;;;;;;;;5098456;27;45386;-68
2022/10/24 04:24:59;;;;;;;;;1.25;1.25;;;;;;;;5098473;27;45378;-71
2022/10/24 04:27:24;;;;;;;;;4.00;4.00;;;;;;;;5098157;27;45421;-69
2022/10/24 04:29:50;;;;;;;;;2.75;1.75;;;;;;;;5098700;27;45342;-69
2022/10/24 04:32:15;;;;;;;;;2.00;2.00;;;;;;;;5098940;27;45338;-69
2022/10/24 04:34:40;;;;;;;;;2.00;2.00;;;;;;;;5100817;27;45421;-70
2022/10/24 04:37:05;;;;;;;;;0.00;0.00;;;;;;;;5098565;27;45431;-68
2022/10/24 04:39:31;;;;;;;;;2.25;2.25;;;;;;;;5097726;27;45314;-70
2022/10/24 04:41:56;;;;;;;;;3.00;3.00;;;;;;;;5100210;27;45390;-69
2022/10/24 04:44:21;;;;;;;;;2.75;2.75;;;;;;;;5099518;27;45746;-69
2022/10/24 04:46:46;;;;;;;;;1.00;1.00;;;;;;;;5101272;27;45385;-70
2022/10/24 04:49:12;;;;;;;;;1.00;1.00;;;;;;;;5101567;27;45256;-69
2022/10/24 04:51:37;;;;;;;;;2.00;2.00;;;;;;;;5099380;27;45377;-70
2022/10/24 04:54:02;;;;;;;;;2.75;2.00;;;;;;;;5099995;27;45656;-68
2022/10/24 04:56:27;;;;;;;;;2.50;2.50;;;;;;;;5099708;27;46169;-68
2022/10/24 04:58:52;;;;;;;;;2.00;2.00;;;;;;;;5097955;27;45433;-68
2022/10/24 05:01:18;;;;;;;;;2.75;2.75;;;;;;;;5098726;27;45452;-71
2022/10/24 05:03:43;;;;;;;;;2.75;2.00;;;;;;;;5099872;27;45330;-69
2022/10/24 05:06:08;;;;;;;;;2.50;2.50;;;;;;;;5100177;27;46479;-69
2022/10/24 05:08:35;;;;;;;;;5.00;3.25;;;;;;;;5097896;27;45239;-69
2022/10/24 05:11:00;;;;;;;;;3.00;3.00;;;;;;;;5097880;27;45395;-69
2022/10/24 05:13:25;;;;;;;;;2.00;2.00;;;;;;;;5079142;27;45247;-69
2022/10/24 05:15:50;;;;;;;;;2.50;2.50;;;;;;;;5097208;27;45236;-70
2022/10/24 05:18:17;;;;;;;;;3.00;3.00;;;;;;;;5097901;27;45407;-69
2022/10/24 05:20:42;;;;;;;;;2.00;2.00;;;;;;;;5096914;27;45279;-70
2022/10/24 05:23:08;;;;;;;;;2.00;2.00;;;;;;;;5098772;27;45312;-71
2022/10/24 05:25:33;;;;;;;;;2.00;1.00;;;;;;;;5078347;27;47324;-68
2022/10/24 05:27:58;;;;;;;;;3.50;3.50;;;;;;;;5096272;27;45820;-69
2022/10/24 05:30:23;;;;;;;;;2.50;2.50;;;;;;;;5098544;27;45457;-70
2022/10/24 05:32:48;;;;;;;;;1.75;1.75;;;;;;;;5099157;27;45342;-68
2022/10/24 05:35:14;;;;;;;;;3.50;3.50;;;;;;;;5079009;27;47283;-71
2022/10/24 05:37:39;;;;;;;;;5.00;4.00;;;;;;;;5097786;27;45429;-68
2022/10/24 05:40:06;;;;;;;;;2.75;2.75;;;;;;;;5098312;27;45378;-72
2022/10/24 05:42:31;;;;;;;;;4.00;4.00;;;;;;;;5079380;27;45635;-72
2022/10/24 05:44:57;;;;;;;;;4.50;4.50;;;;;;;;5097324;27;46284;-70
2022/10/24 05:47:22;;;;;;;;;3.00;1.00;;;;;;;;5097612;27;45314;-72
2022/10/24 05:49:47;;;;;;;;;3.25;3.25;;;;;;;;5098125;27;45328;-72
2022/10/24 05:52:12;;;;;;;;;2.00;2.00;;;;;;;;5097974;27;45253;-69
2022/10/24 05:54:37;;;;;;;;;4.75;4.75;;;;;;;;5097987;27;45521;-70
2022/10/24 05:57:03;;;;;;;;;2.75;2.75;;;;;;;;5100355;27;45372;-73
2022/10/24 05:59:28;;;;;;;;;4.50;4.50;;;;;;;;5099146;27;45315;-68
2022/10/24 06:01:53;;;;;;;;;2.75;2.75;;;;;;;;5096985;27;45376;-70
2022/10/24 06:04:18;;;;;;;;;2.00;2.00;;;;;;;;5080194;27;47495;-69
2022/10/24 06:06:44;;;;;;;;;2.50;2.50;;;;;;;;5098003;27;45224;-69
2022/10/24 06:09:10;;;;;;;;;5.00;5.00;;;;;;;;5096583;27;45420;-68
2022/10/24 06:11:35;;;;;;;;;5.00;3.00;;;;;;;;5096800;27;45191;-69
2022/10/24 06:14:01;;;;;;;;;2.00;2.00;;;;;;;;5078370;27;47588;-68
2022/10/24 06:16:29;;;;;;;;;4.00;3.50;;;;;;;;5098470;27;45309;-70
2022/10/24 06:18:54;;;;;;;;;1.50;1.50;;;;;;;;5097547;27;45462;-68
2022/10/24 06:21:19;;;;;;;;;2.75;2.75;;;;;;;;5096321;27;46212;-70
2022/10/24 06:23:44;;;;;;;;;4.75;4.50;;;;;;;;5096443;27;45357;-69
2022/10/24 06:26:10;;;;;;;;;3.00;3.00;;;;;;;;5079265;27;45305;-69
2022/10/24 06:28:35;;;;;;;;;4.00;3.75;;;;;;;;5096387;27;45390;-69
2022/10/24 06:31:02;;;;;;;;;4.00;4.00;;;;;;;;5098220;27;45351;-70
2022/10/24 06:33:27;;;;;;;;;3.25;2.00;;;;;;;;5088620;27;46311;-69
2022/10/24 06:35:52;;;;;;;;;3.00;3.00;;;;;;;;5080948;27;45485;-69
2022/10/24 06:38:18;;;;;;;;;3.75;3.75;;;;;;;;5077663;27;45493;-70
2022/10/24 06:40:43;;;;;;;;;5.00;4.25;;;;;;;;5081531;27;45732;-69
2022/10/24 06:43:08;;;;;;;;;2.75;2.75;;;;;;;;5075095;28;45334;-68
2022/10/24 06:45:33;;;;;;;;;3.50;2.50;;;;;;;;5071199;28;45476;-69
2022/10/24 06:47:59;;;;;;;;;3.25;3.00;;;;;;;;5078915;28;45351;-70
2022/10/24 06:50:24;;;;;;;;;2.00;2.00;;;;;;;;5074260;28;46372;-70
2022/10/24 06:52:49;;;;;;;;;2.25;2.25;;;;;;;;5056789;28;45399;-70
2022/10/24 06:55:14;;;;;;;;;5.75;4.50;;;;;;;;5069901;28;45265;-72
2022/10/24 06:57:40;;;;;;;;;4.50;4.50;;;;;;;;5055516;28;45423;-69
2022/10/24 07:00:06;;;;;;;;;5.00;5.00;;;;;;;;5055982;28;45333;-70
2022/10/24 07:02:31;;;;;;;;;5.00;5.00;;;;;;;;5054850;28;45383;-70
2022/10/24 07:04:56;;;;;;;;;2.25;2.00;;;;;;;;5054600;28;45345;-70
2022/10/24 07:07:22;;;;;;;;;2.50;2.50;;;;;;;;5055710;28;45342;-70
2022/10/24 07:09:51;;;;;;;;;5.75;5.00;;;;;;;;5055626;28;45254;-69
2022/10/24 07:12:16;;;;;;;;;3.00;3.00;;;;;;;;5037157;28;48184;-70
2022/10/24 07:14:41;;;;;;;;;4.00;3.00;;;;;;;;5058328;28;45363;-70
2022/10/24 07:17:06;;;;;;;;;4.50;4.50;;;;;;;;5058136;28;45376;-71
2022/10/24 07:19:32;;;;;;;;;4.00;3.50;;;;;;;;5058879;28;45317;-69
2022/10/24 07:21:59;;;;;;;;;2.25;2.25;;;;;;;;5072211;28;46312;-71
2022/10/24 07:24:24;;;;;;;;;3.00;3.00;;;;;;;;5078887;27;45305;-70
2022/10/24 07:26:49;;;;;;;;;5.00;5.00;;;;;;;;5078127;28;45329;-70
2022/10/24 07:29:14;;;;;;;;;7.00;5.75;;;;;;;;5078235;28;45169;-69
2022/10/24 07:31:40;;;;;;;;;3.75;3.75;;;;;;;;5078007;28;46597;-70
2022/10/24 07:34:05;;;;;;;;;4.25;4.25;;;;;;;;5077630;28;45309;-69
2022/10/24 07:36:31;;;;;;;;;5.00;4.50;;;;;;;;5078038;28;45407;-70
2022/10/24 07:38:57;;;;;;;;;4.75;3.00;;;;;;;;5077798;28;45694;-70
2022/10/24 07:41:23;;;;;;;;;3.00;2.00;;;;;;;;5077895;27;45987;-70
2022/10/24 07:43:48;;;;;;;;;3.50;3.50;;;;;;;;5076206;28;45262;-68
2022/10/24 07:46:14;;;;;;;;;6.75;6.75;;;;;;;;5077876;28;45383;-69
2022/10/24 07:48:41;;;;;;;;;3.00;3.00;;;;;;;;5078944;28;45231;-71
2022/10/24 07:51:07;;;;;;;;;9.25;9.00;;;;;;;;5081551;28;46926;-70
2022/10/24 07:53:33;;;;;;;;;6.75;5.25;;;;;;;;5077768;28;45322;-70
2022/10/24 07:56:01;;;;;;;;;4.75;4.25;;;;;;;;5078093;28;45377;-70
2022/10/24 07:58:26;;;;;;;;;4.50;4.50;;;;;;;;5078544;27;45649;-71
2022/10/24 08:00:52;;;;;;;;;3.00;2.00;;;;;;;;5078362;28;46300;-70
2022/10/24 08:03:17;;;;;;;;;6.00;6.00;;;;;;;;5078295;28;45366;-70
2022/10/24 08:05:42;;;;;;;;;4.50;4.50;;;;;;;;5078542;28;45230;-70
2022/10/24 08:08:08;;;;;;;;;3.75;3.00;;;;;;;;5078694;28;45278;-69
2022/10/24 08:10:33;;;;;;;;;4.75;4.00;;;;;;;;5078351;28;46631;-71
2022/10/24 08:12:58;;;;;;;;;4.75;3.75;;;;;;;;5078356;28;45382;-70
2022/10/24 08:15:26;;;;;;;;;3.75;3.75;;;;;;;;5078617;28;45322;-70
2022/10/24 08:17:51;;;;;;;;;2.25;1.75;;;;;;;;5078323;28;45324;-69
2022/10/24 08:20:17;;;;;;;;;3.50;3.50;;;;;;;;5077785;28;46382;-70
2022/10/24 08:22:42;;;;;;;;;8.50;8.50;;;;;;;;5077265;28;45421;-69
2022/10/24 08:25:08;;;;;;;;;4.00;3.25;;;;;;;;5076980;28;45438;-70
2022/10/24 08:27:33;;;;;;;;;3.00;3.00;;;;;;;;5078317;28;45557;-69
2022/10/24 08:29:59;;;;;;;;;4.50;4.00;;;;;;;;5077942;28;45228;-72
2022/10/24 08:32:24;;;;;;;;;4.00;4.00;;;;;;;;5077771;28;45239;-70
2022/10/24 08:34:49;;;;;;;;;4.50;4.50;;;;;;;;5077579;28;45253;-71
2022/10/24 08:37:14;;;;;;;;;1.50;1.50;;;;;;;;5077657;28;45465;-69
2022/10/24 08:39:40;;;;;;;;;1.75;1.75;;;;;;;;5077716;28;46243;-71
2022/10/24 08:42:07;;;;;;;;;5.25;5.25;;;;;;;;5078487;28;45234;-69
2022/10/24 08:44:35;;;;;;;;;2.75;2.75;;;;;;;;5079179;28;45969;-70
2022/10/24 08:47:19;;;;;;;;;3.75;3.75;;;;;;;;5077875;28;45614;-70
2022/10/24 08:49:57;;;;;;;;;2.25;2.25;;;;;;;;5077193;27;46112;-69
2022/10/24 08:52:31;;;;;;;;;3.50;3.50;;;;;;;;5077699;28;45418;-70
2022/10/24 08:54:59;;;;;;;;;4.50;4.50;;;;;;;;5082204;28;45215;-70
2022/10/24 08:57:29;;;;;;;;;5.00;5.00;;;;;;;;5077373;28;45322;-69
2022/10/24 08:59:58;;;;;;;;;6.25;5.50;;;;;;;;5077752;28;46298;-70
2022/10/24 09:02:24;;;;;;;;;5.50;3.75;;;;;;;;5077014;28;45331;-70
2022/10/24 09:04:55;;;;;;;;;4.50;4.50;;;;;;;;5076520;28;45307;-71
2022/10/24 09:07:21;;;;;;;;;5.50;5.25;;;;;;;;5076937;28;45687;-70
2022/10/24 09:09:48;;;;;;;;;4.00;3.25;;;;;;;;5076470;28;45418;-70
2022/10/24 09:12:15;;;;;;;;;3.25;3.25;;;;;;;;5077821;28;45349;-69
2022/10/24 09:14:41;;;;;;;;;5.50;5.50;;;;;;;;5079395;27;45215;-70
2022/10/24 09:17:12;;;;;;;;;14.75;14.75;;;;;;;;5076783;28;45243;-70
2022/10/24 09:19:38;;;;;;;;;5.00;4.00;;;;;;;;5076198;28;45473;-70
2022/10/24 09:22:05;;;;;;;;;5.25;4.75;;;;;;;;5076373;28;45338;-69
2022/10/24 09:24:49;;;;;;;;;2.00;2.00;;;;;;;;5076666;28;45259;-70
2022/10/24 09:27:18;;;;;;;;;4.00;4.00;;;;;;;;5076766;27;45526;-69
2022/10/24 09:29:43;;;;;;;;;6.00;4.00;;;;;;;;5076570;27;46514;-70
2022/10/24 09:32:17;;;;;;;;;4.25;4.25;;;;;;;;5075574;28;45387;-71
2022/10/24 09:34:43;;;;;;;;;2.75;2.75;;;;;;;;5077430;28;45172;-70
2022/10/24 09:37:27;;;;;;;;;4.00;4.00;;;;;;;;5077467;27;45544;-69
2022/10/24 09:40:04;;;;;;;;;2.25;2.25;;;;;;;;5076579;28;45248;-69
2022/10/24 09:42:30;;;;;;;;;6.00;6.00;;;;;;;;5075721;28;45418;-69
2022/10/24 09:44:56;;;;;;;;;3.50;3.50;;;;;;;;5077013;28;45852;-70
2022/10/24 09:47:26;;;;;;;;;3.00;3.00;;;;;;;;5076887;28;45506;-70
2022/10/24 09:49:52;;;;;;;;;4.50;4.50;;;;;;;;5074677;28;46487;-69
2022/10/24 09:52:20;;;;;;;;;0.25;0.25;;;;;;;;5075911;28;45224;-69
2022/10/24 09:54:46;;;;;;;;;3.50;3.50;;;;;;;;5076459;27;45366;-69
2022/10/24 09:57:14;;;;;;;;;2.50;2.50;;;;;;;;5076715;27;45403;-70
2022/10/24 09:59:43;;;;;;;;;3.75;3.75;;;;;;;;5076107;28;45421;-70
2022/10/24 10:02:20;;;;;;;;;10.25;9.50;;;;;;;;5075871;27;45237;-69
2022/10/24 10:05:05;;;;;;;;;3.50;3.50;;;;;;;;5075733;27;45317;-70
2022/10/24 10:07:38;;;;;;;;;5.00;5.00;;;;;;;;5076052;27;45388;-69
2022/10/24 10:10:06;;;;;;;;;6.75;5.50;;;;;;;;5075230;28;46393;-69
2022/10/24 10:12:33;;;;;;;;;5.75;5.75;;;;;;;;5075816;27;45323;-70
2022/10/24 10:15:00;;;;;;;;;2.75;2.75;;;;;;;;5075762;28;45483;-70
2022/10/24 10:17:26;;;;;;;;;5.00;5.00;;;;;;;;5076541;28;45467;-70
2022/10/24 10:19:52;;;;;;;;;4.25;4.25;;;;;;;;5076052;28;45263;-69
2022/10/24 10:22:20;;;;;;;;;8.25;7.00;;;;;;;;5074123;28;45247;-72
2022/10/24 10:24:46;;;;;;;;;9.25;7.25;;;;;;;;5075447;28;45326;-70
2022/10/24 10:27:30;;;;;;;;;3.50;3.50;;;;;;;;5075908;28;45530;-72
2022/10/24 10:30:07;;;;;;;;;5.00;5.00;;;;;;;;5075573;27;45984;-71
2022/10/24 10:32:56;;;;;;;;;4.75;4.75;;;;;;;;5075255;28;45247;-70
2022/10/24 10:35:37;;;;;;;;;4.00;4.00;;;;;;;;5066153;28;45364;-69
2022/10/24 10:38:16;;;;;;;;;3.25;3.25;;;;;;;;5075998;28;45334;-73
2022/10/24 10:40:45;;;;;;;;;4.75;4.00;;;;;;;;5075489;28;46635;-71
2022/10/24 10:43:19;;;;;;;;;4.75;4.75;;;;;;;;5075807;28;45431;-70
2022/10/24 10:45:45;;;;;;;;;4.00;4.00;;;;;;;;5075092;28;45389;-69
2022/10/24 10:48:23;;;;;;;;;2.00;2.00;;;;;;;;5075189;28;45393;-70
2022/10/24 10:51:06;;;;;;;;;3.00;2.75;;;;;;;;5078844;28;45988;-69
2022/10/24 10:53:41;;;;;;;;;4.50;3.75;;;;;;;;5079482;27;45324;-71
2022/10/24 10:56:06;;;;;;;;;3.25;3.25;;;;;;;;5078483;28;45337;-69
2022/10/24 10:58:47;;;;;;;;;5.00;3.25;;;;;;;;5079228;28;45644;-70
2022/10/24 11:01:27;;;;;;;;;3.00;2.25;;;;;;;;5078388;28;45474;-70
2022/10/24 11:03:56;;;;;;;;;4.25;4.25;;;;;;;;5079340;28;45393;-71
2022/10/24 11:06:33;;;;;;;;;0.00;0.00;;;;;;;;5078708;28;45370;-70
2022/10/24 11:09:10;;;;;;;;;3.00;2.00;;;;;;;;5078896;28;45302;-72
2022/10/24 11:11:38;;;;;;;;;3.25;3.25;;;;;;;;5078991;28;45559;-70
2022/10/24 11:14:25;;;;;;;;;3.00;3.00;;;;;;;;5079740;28;45368;-70
2022/10/24 11:16:53;;;;;;;;;1.75;1.25;;;;;;;;5078805;28;45389;-70
2022/10/24 11:19:24;;;;;;;;;4.25;4.25;;;;;;;;5078385;28;45557;-70
2022/10/24 11:21:50;;;;;;;;;3.00;3.00;;;;;;;;5078702;28;45478;-70
2022/10/24 11:24:20;;;;;;;;;1.75;1.75;;;;;;;;5078258;28;45180;-70
2022/10/24 11:26:51;;;;;;;;;5.75;5.25;;;;;;;;5078402;28;45330;-69
2022/10/24 11:29:33;;;;;;;;;5.00;4.50;;;;;;;;5078662;28;45452;-70
2022/10/24 11:32:08;;;;;;;;;12.50;12.50;;;;;;;;5075899;27;46112;-70
2022/10/24 11:34:41;;;;;;;;;3.00;3.00;;;;;;;;5076209;28;45418;-70
2022/10/24 11:37:11;;;;;;;;;3.50;3.50;;;;;;;;5077006;28;45409;-70
2022/10/24 11:39:43;;;;;;;;;2.75;2.00;;;;;;;;5078633;28;45193;-70
2022/10/24 11:42:10;;;;;;;;;8.00;6.75;;;;;;;;5076505;28;47019;-69
2022/10/24 11:44:39;;;;;;;;;1.00;1.00;;;;;;;;5081370;27;45165;-72
2022/10/24 11:47:23;;;;;;;;;2.50;2.50;;;;;;;;5080041;28;45425;-70
2022/10/24 11:49:57;;;;;;;;;2.00;2.00;;;;;;;;5076761;28;45440;-69
2022/10/24 11:52:26;;;;;;;;;1.00;1.00;;;;;;;;5077575;28;45273;-70
2022/10/24 11:54:58;;;;;;;;;3.00;3.00;;;;;;;;5077667;28;45449;-70
2022/10/24 11:57:27;;;;;;;;;3.25;3.25;;;;;;;;5078219;27;45234;-70
2022/10/24 11:59:53;;;;;;;;;2.50;2.50;;;;;;;;5077183;28;45389;-69
2022/10/24 12:02:22;;;;;;;;;4.00;4.00;;;;;;;;5077699;28;46210;-71
2022/10/24 12:05:02;;;;;;;;;2.00;2.00;;;;;;;;5077499;28;45252;-69
2022/10/24 12:07:33;;;;;;;;;2.00;2.00;;;;;;;;5077776;28;45369;-69
2022/10/24 12:10:09;;;;;;;;;3.25;3.25;;;;;;;;5077521;28;45219;-70
2022/10/24 12:12:40;;;;;;;;;8.00;8.00;;;;;;;;5077083;27;45361;-70
2022/10/24 12:15:25;;;;;;;;;4.25;3.00;;;;;;;;5077467;28;45295;-70
2022/10/24 12:18:06;;;;;;;;;2.25;2.25;;;;;;;;5065840;28;45284;-70
2022/10/24 12:20:34;;;;;;;;;5.00;3.25;;;;;;;;5077321;28;45449;-69
2022/10/24 12:23:01;;;;;;;;;4.00;4.00;;;;;;;;5077044;28;45990;-68
2022/10/24 12:25:36;;;;;;;;;6.25;4.50;;;;;;;;5075573;28;45279;-70
2022/10/24 12:28:03;;;;;;;;;3.50;2.75;;;;;;;;5075668;27;45403;-70
2022/10/24 12:30:31;;;;;;;;;3.00;2.00;;;;;;;;5077779;28;45579;-69
2022/10/24 12:32:58;;;;;;;;;1.75;1.50;;;;;;;;5078990;27;45417;-71
2022/10/24 12:35:26;;;;;;;;;4.00;2.25;;;;;;;;5078508;28;45387;-68
2022/10/24 12:37:52;;;;;;;;;3.00;3.00;;;;;;;;5077359;28;45239;-70
2022/10/24 12:40:36;;;;;;;;;3.00;3.00;;;;;;;;5077544;28;45437;-70
2022/10/24 12:43:11;;;;;;;;;1.75;1.75;;;;;;;;5077741;27;46212;-70
2022/10/24 12:45:36;;;;;;;;;0.00;0.00;;;;;;;;5077101;28;45325;-69
2022/10/24 12:48:01;;;;;;;;;2.50;2.50;;;;;;;;5077359;28;45257;-70
2022/10/24 12:50:28;;;;;;;;;3.00;2.00;;;;;;;;5077544;28;45646;-71
2022/10/24 12:52:53;;;;;;;;;3.00;3.00;;;;;;;;5077229;28;46156;-69
2022/10/24 12:55:27;;;;;;;;;2.50;2.50;;;;;;;;5077854;28;45341;-69
2022/10/24 12:57:53;;;;;;;;;2.75;2.75;;;;;;;;5077428;28;45263;-71
2022/10/24 13:00:29;;;;;;;;;3.50;2.75;;;;;;;;5077364;28;45239;-71
2022/10/24 13:02:54;;;;;;;;;2.00;2.00;;;;;;;;5076722;27;47079;-71
2022/10/24 13:05:35;;;;;;;;;4.00;4.00;;;;;;;;5076683;28;45512;-71
2022/10/24 13:08:00;;;;;;;;;1.25;1.25;;;;;;;;5080291;28;45342;-70
2022/10/24 13:10:25;;;;;;;;;2.50;2.50;;;;;;;;5078500;28;45289;-69
2022/10/24 13:13:09;;;;;;;;;1.00;1.00;;;;;;;;5078836;28;45922;-70
2022/10/24 13:15:53;;;;;;;;;3.25;3.25;;;;;;;;5077594;28;45303;-68
2022/10/24 13:18:18;;;;;;;;;3.75;3.75;;;;;;;;5076810;27;45369;-69
2022/10/24 13:20:44;;;;;;;;;2.00;2.00;;;;;;;;5077050;28;45844;-68
2022/10/24 13:23:23;;;;;;;;;2.00;2.00;;;;;;;;5077979;27;46233;-71
2022/10/24 13:25:51;;;;;;;;;1.50;1.50;;;;;;;;5076562;28;45475;-70
2022/10/24 13:28:19;;;;;;;;;2.00;2.00;;;;;;;;5076196;28;45306;-70
2022/10/24 13:30:47;;;;;;;;;1.00;1.00;;;;;;;;5076394;28;45585;-70
2022/10/24 13:33:28;;;;;;;;;2.00;2.00;;;;;;;;5076482;28;46327;-70
2022/10/24 13:35:55;;;;;;;;;1.00;1.00;;;;;;;;5076031;27;45344;-69
2022/10/24 13:38:21;;;;;;;;;3.25;3.25;;;;;;;;5076745;28;45338;-69
2022/10/24 13:40:46;;;;;;;;;1.75;1.75;;;;;;;;5080262;27;45483;-71
2022/10/24 13:43:18;;;;;;;;;3.25;3.25;;;;;;;;5077022;28;45429;-69
2022/10/24 13:45:46;;;;;;;;;1.00;1.00;;;;;;;;5074923;28;45406;-70
2022/10/24 13:48:16;;;;;;;;;2.50;2.50;;;;;;;;5076515;28;45270;-70
2022/10/24 13:50:50;;;;;;;;;1.00;1.00;;;;;;;;5076414;28;45587;-71
2022/10/24 13:53:21;;;;;;;;;2.00;2.00;;;;;;;;5075461;27;45487;-68
2022/10/24 13:55:48;;;;;;;;;2.00;2.00;;;;;;;;5074507;28;45440;-70
2022/10/24 13:58:18;;;;;;;;;0.75;0.75;;;;;;;;5076288;28;45235;-70
2022/10/24 14:00:45;;;;;;;;;1.50;1.50;;;;;;;;5076873;28;45427;-70
2022/10/24 14:03:15;;;;;;;;;1.00;1.00;;;;;;;;5076044;27;46242;-70
2022/10/24 14:05:45;;;;;;;;;0.00;0.00;;;;;;;;5076113;28;45377;-69
2022/10/24 14:08:19;;;;;;;;;1.00;1.00;;;;;;;;5076149;28;45328;-69
2022/10/24 14:10:45;;;;;;;;;2.00;2.00;;;;;;;;5074988;28;45205;-70
2022/10/24 14:13:15;;;;;;;;;0.75;0.75;;;;;;;;5075445;28;46349;-70
2022/10/24 14:15:45;;;;;;;;;2.75;2.50;;;;;;;;5076881;28;45385;-69
2022/10/24 14:18:13;;;;;;;;;1.00;1.00;;;;;;;;5078124;28;45247;-70
2022/10/24 14:20:39;;;;;;;;;2.00;2.00;;;;;;;;5076514;28;45328;-70
2022/10/24 14:23:22;;;;;;;;;3.00;2.00;;;;;;;;5074678;28;46583;-70
2022/10/24 14:25:53;;;;;;;;;2.00;1.75;;;;;;;;5074955;27;45302;-70
2022/10/24 14:28:20;;;;;;;;;2.00;2.00;;;;;;;;5073421;28;45262;-69
2022/10/24 14:30:56;;;;;;;;;4.75;3.00;;;;;;;;5075597;28;45526;-69
2022/10/24 14:33:23;;;;;;;;;0.67;0.67;;;;;;;;5075126;28;46410;-68
2022/10/24 14:35:49;;;;;;;;;1.00;1.00;;;;;;;;5073755;28;45383;-69
2022/10/24 14:38:16;;;;;;;;;1.00;1.00;;;;;;;;5076067;28;45349;-70
2022/10/24 14:40:42;;;;;;;;;1.00;1.00;;;;;;;;5075899;27;45306;-68
2022/10/24 14:43:13;;;;;;;;;1.00;1.00;;;;;;;;5073986;28;47248;-68
2022/10/24 14:45:38;;;;;;;;;2.00;2.00;;;;;;;;5075658;28;45766;-68
2022/10/24 14:48:15;;;;;;;;;0.75;0.75;;;;;;;;5075423;27;45709;-70
2022/10/24 14:50:42;;;;;;;;;3.50;3.50;;;;;;;;5077038;28;45428;-68